Time;durP1;ratioP1;P1;durP2;ratioP2;P2;SDS_P1;SDS_P2;PMS_P1;PMS_P2;Temp;Humidity;BMP_temperature;BMP_pressure;BME280_temperature;BME280_humidity;BME280_pressure;Samples;Min_cycle;Max_cycle;Signal;HPM_P1;HPM_P2
2022/09/17 00:01:01;;;;;;;11.57;6.22;;;;;;;9.01;100.00;94992.91;5039038;28;20048;-76
2022/09/17 00:03:33;;;;;;;13.90;5.90;;;;;;;8.99;100.00;94991.63;5043771;28;20045;-74
2022/09/17 00:06:07;;;;;;;14.10;5.80;;;;;;;9.00;100.00;95001.06;5040501;28;20065;-75
2022/09/17 00:08:35;;;;;;;9.27;5.45;;;;;;;9.01;100.00;95002.63;5046453;28;20056;-75
2022/09/17 00:11:07;;;;;;;13.07;5.85;;;;;;;8.91;100.00;95002.69;5046843;28;20037;-75
2022/09/17 00:13:33;;;;;;;9.90;6.07;;;;;;;8.95;100.00;94998.47;5039620;28;20446;-76
2022/09/17 00:15:58;;;;;;;13.93;6.03;;;;;;;9.03;100.00;95005.75;5049142;28;20037;-75
2022/09/17 00:18:24;;;;;;;10.00;5.63;;;;;;;8.92;100.00;94988.50;5042597;28;20037;-76
2022/09/17 00:20:49;;;;;;;8.75;5.70;;;;;;;8.90;100.00;94999.28;5042235;28;20041;-75
2022/09/17 00:23:15;;;;;;;11.70;6.05;;;;;;;8.86;100.00;95000.88;5046387;28;20079;-75
2022/09/17 00:25:44;;;;;;;9.85;5.93;;;;;;;8.87;100.00;95001.66;5039799;28;20037;-75
2022/09/17 00:28:11;;;;;;;12.48;6.43;;;;;;;8.82;100.00;95000.63;5042801;28;20037;-74
2022/09/17 00:30:41;;;;;;;12.15;5.70;;;;;;;8.87;100.00;94997.19;5032804;28;20033;-75
2022/09/17 00:33:08;;;;;;;8.88;5.50;;;;;;;8.75;100.00;95000.16;5037141;28;20036;-75
2022/09/17 00:35:33;;;;;;;11.18;5.53;;;;;;;8.81;100.00;95009.56;5044820;28;20079;-75
2022/09/17 00:37:59;;;;;;;8.73;5.07;;;;;;;8.78;100.00;94999.59;5048063;28;20789;-74
2022/09/17 00:40:24;;;;;;;11.93;4.90;;;;;;;8.93;100.00;95005.81;5037305;28;20487;-75
2022/09/17 00:42:52;;;;;;;9.25;4.22;;;;;;;8.88;100.00;95011.09;5047172;28;20072;-76
2022/09/17 00:45:18;;;;;;;13.20;4.63;;;;;;;8.84;100.00;95009.00;5043082;28;20049;-74
2022/09/17 00:47:57;;;;;;;8.75;4.57;;;;;;;8.72;100.00;95011.19;5032956;28;20048;-75
2022/09/17 00:50:43;;;;;;;7.30;3.67;;;;;;;8.84;100.00;95013.47;5045738;28;20053;-75
2022/09/17 00:53:16;;;;;;;6.03;3.92;;;;;;;8.81;100.00;95014.81;5063373;28;20048;-76
2022/09/17 00:55:47;;;;;;;6.63;3.70;;;;;;;8.81;100.00;95014.81;5039263;28;20441;-76
2022/09/17 00:58:17;;;;;;;8.98;3.63;;;;;;;8.72;100.00;95016.44;5042273;28;20033;-75
2022/09/17 01:00:43;;;;;;;7.30;3.65;;;;;;;8.71;100.00;95014.84;5046892;28;20119;-75
2022/09/17 01:03:08;;;;;;;9.25;4.28;;;;;;;8.69;100.00;95011.69;5042908;28;20049;-75
2022/09/17 01:06:16;;;;;;;7.47;3.58;;;;;;;8.76;100.00;95027.94;5047061;28;20067;-75
2022/09/17 01:08:58;;;;;;;7.07;3.28;;;;;;;8.64;100.00;95019.59;5037946;28;20455;-75
2022/09/17 01:11:37;;;;;;;6.20;3.33;;;;;;;8.65;100.00;95031.66;5036548;28;20073;-75
2022/09/17 01:14:16;;;;;;;4.75;3.25;;;;;;;8.86;100.00;95015.84;5031052;28;20041;-75
2022/09/17 01:17:00;;;;;;;6.22;3.17;;;;;;;8.75;100.00;95018.50;5039008;28;20033;-75
2022/09/17 01:19:54;;;;;;;6.47;3.00;;;;;;;8.63;100.00;95013.59;5043475;28;20443;-75
2022/09/17 01:22:49;;;;;;;7.05;3.35;;;;;;;8.68;100.00;95010.16;5041829;28;20041;-75
2022/09/17 01:25:18;;;;;;;;;;;;;;;8.55;100.00;95015.94;5046360;28;20041;-75
2022/09/17 01:28:16;;;;;;;5.32;3.20;;;;;;;8.57;100.00;95013.88;5041555;28;19924;-74
2022/09/17 01:30:59;;;;;;;6.43;3.10;;;;;;;8.54;100.00;95019.66;5032475;28;20048;-76
2022/09/17 01:33:54;;;;;;;9.02;3.13;;;;;;;8.67;100.00;95019.06;5055360;28;20454;-76
2022/09/17 01:36:32;;;;;;;5.75;3.40;;;;;;;8.64;100.00;95020.38;5033727;28;20068;-74
2022/09/17 01:39:42;;;;;;;7.07;3.20;;;;;;;8.53;100.00;95012.81;5036609;28;20044;-75
2022/09/17 01:42:17;;;;;;;13.23;3.30;;;;;;;8.43;100.00;95014.41;5044518;28;20043;-75
2022/09/17 01:44:52;;;;;;;8.00;3.47;;;;;;;8.58;100.00;95015.44;5042285;28;20045;-75
2022/09/17 01:47:29;;;;;;;6.53;3.13;;;;;;;8.53;100.00;95018.84;5054315;28;20571;-75
2022/09/17 01:50:01;;;;;;;5.55;3.55;;;;;;;8.55;100.00;95010.69;5041851;28;20049;-75
2022/09/17 01:52:30;;;;;;;7.15;3.30;;;;;;;8.51;100.00;94999.22;5042235;28;20041;-77
2022/09/17 01:55:00;;;;;;;4.65;3.10;;;;;;;8.47;100.00;95012.81;5033949;28;20051;-76
2022/09/17 01:57:34;;;;;;;4.88;3.10;;;;;;;8.39;100.00;95007.31;5046634;28;20048;-76
2022/09/17 02:00:11;;;;;;;5.60;3.00;;;;;;;8.51;100.00;95014.94;5039467;28;20042;-73
2022/09/17 02:02:54;;;;;;;7.68;3.22;;;;;;;8.51;100.00;95010.47;5040182;28;20060;-76
2022/09/17 02:05:33;;;;;;;5.43;3.25;;;;;;;8.52;100.00;95011.25;5048934;28;20037;-76
2022/09/17 02:08:13;;;;;;;5.35;3.25;;;;;;;8.48;100.00;95011.78;5040843;28;20052;-75
2022/09/17 02:10:45;;;;;;;5.95;3.10;;;;;;;8.60;100.00;95008.06;5040733;28;20403;-75
2022/09/17 02:13:36;;;;;;;5.68;3.00;;;;;;;8.58;100.00;95005.72;5035716;28;20037;-75
2022/09/17 02:16:10;;;;;;;5.47;2.75;;;;;;;8.51;100.00;95002.59;5036182;28;22286;-75
2022/09/17 02:19:01;;;;;;;5.40;2.97;;;;;;;8.45;100.00;94991.34;5043074;28;20491;-76
2022/09/17 02:21:42;;;;;;;7.57;3.00;;;;;;;8.43;100.00;95003.91;5035999;28;20118;-75
2022/09/17 02:24:30;;;;;;;5.57;2.85;;;;;;;8.46;100.00;95003.41;5033949;28;20052;-76
2022/09/17 02:27:04;;;;;;;6.57;3.03;;;;;;;8.42;100.00;94997.09;5037395;28;20041;-75
2022/09/17 02:29:39;;;;;;;6.20;2.88;;;;;;;8.41;100.00;94985.03;5048556;28;20048;-76
2022/09/17 02:32:05;;;;;;;6.00;3.30;;;;;;;8.42;100.00;94989.22;5037729;28;20055;-76
2022/09/17 02:34:30;;;;;;;9.38;3.03;;;;;;;8.37;100.00;94994.47;5047243;28;20045;-76
2022/09/17 02:36:59;;;;;;;5.80;2.60;;;;;;;8.25;100.00;94980.91;5047642;28;20056;-75
2022/09/17 02:39:26;;;;;;;6.28;2.97;;;;;;;8.39;100.00;94992.41;5044927;28;20423;-75
2022/09/17 02:42:03;;;;;;;4.88;2.70;;;;;;;8.42;100.00;94976.13;5045032;28;20044;-76
2022/09/17 02:44:49;;;;;;;10.43;2.80;;;;;;;8.38;100.00;94977.72;5041495;28;20079;-75
2022/09/17 02:47:17;;;;;;;6.30;3.25;;;;;;;8.30;100.00;94973.00;5042709;28;20098;-75
2022/09/17 02:49:55;;;;;;;3.28;2.10;;;;;;;8.31;100.00;94966.72;5045302;28;20045;-76
2022/09/17 02:52:44;;;;;;;3.83;2.50;;;;;;;8.34;100.00;94968.81;5043082;28;20049;-76
2022/09/17 02:55:12;;;;;;;6.47;2.53;;;;;;;8.30;100.00;94957.28;5029984;28;20215;-74
2022/09/17 02:58:11;;;;;;;3.67;2.33;;;;;;;8.19;100.00;94950.50;5039206;28;20095;-74
2022/09/17 03:00:37;;;;;;;5.65;2.45;;;;;;;8.41;100.00;94948.31;5045678;28;20113;-75
2022/09/17 03:03:50;;;;;;;10.52;2.80;;;;;;;8.26;100.00;94945.75;5040555;28;20491;-76
2022/09/17 03:06:17;;;;;;;5.97;2.45;;;;;;;8.25;100.00;94949.44;5029873;28;20053;-76
2022/09/17 03:08:45;;;;;;;4.15;2.20;;;;;;;8.20;100.00;94936.34;5035570;28;20041;-76
2022/09/17 03:11:11;;;;;;;6.82;2.67;;;;;;;8.11;100.00;94942.13;5049765;28;20068;-76
2022/09/17 03:13:37;;;;;;;5.97;2.22;;;;;;;8.10;100.00;94937.97;5048194;28;20041;-76
2022/09/17 03:16:04;;;;;;;5.68;2.50;;;;;;;8.06;100.00;94942.16;5050345;28;20517;-74
2022/09/17 03:18:30;;;;;;;4.35;2.20;;;;;;;8.19;100.00;94950.50;5050872;28;20457;-73
2022/09/17 03:20:56;;;;;;;4.95;2.38;;;;;;;8.07;100.00;94938.47;5045275;28;20040;-75
2022/09/17 03:23:21;;;;;;;3.42;2.10;;;;;;;8.03;100.00;94945.31;5043601;28;20415;-75
2022/09/17 03:25:48;;;;;;;3.65;2.30;;;;;;;8.05;100.00;94956.31;5051853;28;20126;-73
2022/09/17 03:28:14;;;;;;;5.95;2.17;;;;;;;8.03;100.00;94953.19;5070853;28;20049;-72
2022/09/17 03:30:42;;;;;;;7.82;2.10;;;;;;;7.91;100.00;94958.69;5063103;28;20109;-72
2022/09/17 03:33:08;;;;;;;5.57;2.15;;;;;;;7.85;100.00;94946.66;5069469;28;20043;-73
2022/09/17 03:35:33;;;;;;;4.43;2.33;;;;;;;7.86;100.00;94950.06;5069360;28;20030;-73
2022/09/17 03:37:59;;;;;;;5.55;2.38;;;;;;;7.87;100.00;94954.25;5076683;28;20024;-72
2022/09/17 03:40:24;;;;;;;3.88;2.08;;;;;;;7.85;100.00;94949.28;5069038;28;20033;-73
2022/09/17 03:42:50;;;;;;;4.60;2.17;;;;;;;7.87;100.00;94955.03;5071793;28;20097;-73
2022/09/17 03:45:15;;;;;;;5.47;2.42;;;;;;;7.70;100.00;94954.53;5074076;28;20395;-72
2022/09/17 03:47:41;;;;;;;5.07;2.70;;;;;;;7.78;100.00;94962.66;5071522;28;20034;-73
2022/09/17 03:50:07;;;;;;;7.05;2.33;;;;;;;7.71;100.00;94956.91;5075975;28;20056;-72
2022/09/17 03:52:32;;;;;;;7.57;2.40;;;;;;;7.78;100.00;94957.41;5072513;28;20052;-72
2022/09/17 03:54:57;;;;;;;4.47;2.17;;;;;;;7.85;100.00;94957.16;5058575;28;20036;-75
2022/09/17 03:57:23;;;;;;;5.50;2.53;;;;;;;7.82;100.00;94962.16;5044988;28;20453;-73
2022/09/17 03:59:48;;;;;;;6.43;2.50;;;;;;;7.82;100.00;94962.16;5048132;28;20039;-74
2022/09/17 04:02:14;;;;;;;3.45;2.50;;;;;;;7.73;100.00;94965.28;5048367;28;20536;-74
2022/09/17 04:04:39;;;;;;;5.18;2.53;;;;;;;7.87;100.00;94959.50;5037378;28;20052;-75
2022/09/17 04:07:05;;;;;;;5.38;2.60;;;;;;;7.77;100.00;94950.63;5050722;28;20406;-74
2022/09/17 04:09:31;;;;;;;8.15;3.03;;;;;;;7.79;100.00;94950.34;5048927;28;20037;-75
2022/09/17 04:11:56;;;;;;;5.47;2.75;;;;;;;7.82;100.00;94956.91;5042386;28;20118;-75
2022/09/17 04:14:22;;;;;;;4.93;2.78;;;;;;;7.76;100.00;94964.75;5038045;28;20041;-75
2022/09/17 04:16:47;;;;;;;6.32;2.67;;;;;;;7.71;100.00;94946.41;5050136;28;20043;-75
2022/09/17 04:19:13;;;;;;;4.28;2.95;;;;;;;7.69;100.00;94953.78;5045445;28;20041;-74
2022/09/17 04:21:38;;;;;;;5.18;2.97;;;;;;;7.74;100.00;94956.41;5044535;28;20069;-75
2022/09/17 04:24:04;;;;;;;7.22;2.92;;;;;;;7.73;100.00;94941.72;5044757;28;20037;-75
2022/09/17 04:26:30;;;;;;;7.72;2.70;;;;;;;7.92;100.00;94941.16;5050296;28;20049;-75
2022/09/17 04:28:55;;;;;;;5.63;2.58;;;;;;;7.84;100.00;94939.06;5046580;28;20037;-74
2022/09/17 04:31:23;;;;;;;10.23;3.13;;;;;;;7.95;100.00;94945.88;5042559;28;20044;-74
2022/09/17 04:33:49;;;;;;;5.13;2.80;;;;;;;7.87;100.00;94959.50;5042457;28;20514;-75
2022/09/17 04:36:15;;;;;;;4.65;2.60;;;;;;;7.82;100.00;94977.88;5045866;28;20119;-75
2022/09/17 04:38:40;;;;;;;7.22;3.30;;;;;;;7.85;100.00;94978.09;5043025;28;20041;-75
2022/09/17 04:41:07;;;;;;;7.55;3.10;;;;;;;7.93;100.00;94995.09;5044366;28;20502;-74
2022/09/17 04:43:32;;;;;;;4.68;2.92;;;;;;;7.83;100.00;94992.50;5045976;28;20041;-75
2022/09/17 04:45:58;;;;;;;5.10;2.90;;;;;;;7.93;100.00;95000.34;5045489;28;20052;-75
2022/09/17 04:48:24;;;;;;;7.82;2.72;;;;;;;7.84;100.00;95001.94;5039986;28;20096;-74
2022/09/17 04:50:49;;;;;;;7.45;2.60;;;;;;;7.75;100.00;95009.56;5039032;28;20042;-75
2022/09/17 04:53:14;;;;;;;8.98;3.25;;;;;;;7.77;100.00;95029.22;5046359;28;20040;-74
2022/09/17 04:55:41;;;;;;;5.07;2.53;;;;;;;7.98;100.00;95031.78;5046043;28;20549;-74
2022/09/17 04:58:07;;;;;;;5.55;3.10;;;;;;;7.86;100.00;95047.00;5045384;28;20445;-75
2022/09/17 05:00:34;;;;;;;7.55;3.10;;;;;;;7.98;100.00;95044.91;5038876;28;20094;-75
2022/09/17 05:02:59;;;;;;;7.43;3.08;;;;;;;7.84;100.00;95049.09;5045412;28;20048;-74
2022/09/17 05:05:25;;;;;;;5.40;2.72;;;;;;;7.87;100.00;95051.19;5045274;28;20033;-75
2022/09/17 05:07:51;;;;;;;6.20;2.75;;;;;;;7.94;100.00;95054.34;5046092;28;20041;-75
2022/09/17 05:10:18;;;;;;;5.45;2.75;;;;;;;7.96;100.00;95052.25;5041043;28;20037;-75
2022/09/17 05:12:51;;;;;;;8.23;2.90;;;;;;;8.02;100.00;95055.66;5043369;28;20136;-75
2022/09/17 05:15:17;;;;;;;8.10;2.72;;;;;;;7.93;100.00;95063.22;5043855;28;20112;-75
2022/09/17 05:17:43;;;;;;;6.47;2.70;;;;;;;7.79;100.00;95068.22;5047811;28;20051;-74
2022/09/17 05:20:10;;;;;;;7.50;2.78;;;;;;;7.97;100.00;95075.56;5041255;28;20041;-75
2022/09/17 05:22:43;;;;;;;8.70;3.15;;;;;;;8.07;100.00;95085.22;5040017;28;20037;-76
2022/09/17 05:25:09;;;;;;;8.68;3.03;;;;;;;7.99;100.00;95085.78;5047489;28;20045;-75
2022/09/17 05:27:35;;;;;;;6.68;2.70;;;;;;;7.98;100.00;95087.59;5047225;28;20041;-75
2022/09/17 05:30:00;;;;;;;3.80;2.65;;;;;;;8.04;100.00;95091.00;5044245;28;20487;-76
2022/09/17 05:32:26;;;;;;;4.72;3.00;;;;;;;7.92;100.00;95103.59;5044861;28;20072;-76
2022/09/17 05:34:51;;;;;;;8.05;2.90;;;;;;;7.88;100.00;95113.03;5043821;28;20033;-75
2022/09/17 05:37:17;;;;;;;4.00;2.53;;;;;;;7.98;100.00;95113.81;5044976;28;20490;-76
2022/09/17 05:39:42;;;;;;;7.05;2.70;;;;;;;7.94;100.00;95118.03;5047356;28;20048;-76
2022/09/17 05:42:07;;;;;;;4.80;2.85;;;;;;;7.87;100.00;95108.81;5043796;28;20037;-76
2022/09/17 05:44:33;;;;;;;5.65;2.70;;;;;;;7.95;100.00;95121.41;5046178;28;20044;-75
2022/09/17 05:46:59;;;;;;;6.72;2.90;;;;;;;8.09;100.00;95119.84;5041796;28;20507;-76
2022/09/17 05:49:24;;;;;;;4.72;2.58;;;;;;;8.05;100.00;95128.50;5041817;28;20499;-76
2022/09/17 05:51:50;;;;;;;6.03;2.78;;;;;;;8.06;100.00;95141.34;5034523;28;20041;-75
2022/09/17 05:54:16;;;;;;;6.32;3.17;;;;;;;8.01;100.00;95133.47;5033300;28;20037;-75
2022/09/17 05:56:42;;;;;;;6.18;2.90;;;;;;;7.92;100.00;95135.03;5044565;28;20458;-76
2022/09/17 05:59:07;;;;;;;9.15;2.90;;;;;;;7.87;100.00;95121.94;5042197;28;20047;-76
2022/09/17 06:01:32;;;;;;;5.90;2.72;;;;;;;7.99;100.00;95130.31;5047924;28;20048;-76
2022/09/17 06:03:58;;;;;;;5.80;2.60;;;;;;;7.96;100.00;95125.63;5044034;28;20124;-75
2022/09/17 06:06:23;;;;;;;5.45;2.80;;;;;;;7.89;100.00;95122.47;5044759;28;20139;-75
2022/09/17 06:08:49;;;;;;;8.18;2.65;;;;;;;7.98;100.00;95126.13;5043181;28;20049;-75
2022/09/17 06:11:14;;;;;;;8.95;2.40;;;;;;;7.79;100.00;95126.63;5045766;28;20115;-75
2022/09/17 06:13:42;;;;;;;4.72;2.50;;;;;;;7.85;100.00;95121.41;5039896;28;20042;-76
2022/09/17 06:16:08;;;;;;;5.68;2.65;;;;;;;7.87;100.00;95121.94;5044177;28;20048;-76
2022/09/17 06:18:33;;;;;;;5.20;2.65;;;;;;;7.86;100.00;95125.59;5040163;28;20041;-76
2022/09/17 06:21:00;;;;;;;7.78;3.50;;;;;;;7.94;100.00;95130.31;5045973;28;20040;-75
2022/09/17 06:23:30;;;;;;;9.05;2.75;;;;;;;7.91;100.00;95122.97;5047851;28;20063;-75
2022/09/17 06:25:58;;;;;;;5.32;2.70;;;;;;;8.03;100.00;95131.38;5044497;28;20033;-75
2022/09/17 06:28:27;;;;;;;8.10;2.75;;;;;;;7.97;100.00;95132.41;5037423;28;20040;-75
2022/09/17 06:30:55;;;;;;;6.32;3.05;;;;;;;7.98;100.00;95134.00;5039878;28;20033;-75
2022/09/17 06:33:21;;;;;;;7.18;3.03;;;;;;;7.88;100.00;95134.00;5042016;28;20038;-76
2022/09/17 06:35:47;;;;;;;8.13;2.95;;;;;;;7.96;100.00;95125.63;5046588;28;20116;-75
2022/09/17 06:38:13;;;;;;;7.75;2.55;;;;;;;7.96;100.00;95125.63;5044277;28;20562;-78
2022/09/17 06:40:38;;;;;;;5.47;3.08;;;;;;;8.06;100.00;95136.09;5042703;28;20038;-75
2022/09/17 06:43:04;;;;;;;8.93;2.88;;;;;;;8.10;100.00;95124.03;5040555;28;20044;-76
2022/09/17 06:45:29;;;;;;;5.32;2.50;;;;;;;8.12;100.00;95113.28;5046638;28;20041;-76
2022/09/17 06:47:55;;;;;;;5.03;2.33;;;;;;;8.13;100.00;95126.13;5047251;28;20410;-75
2022/09/17 06:50:20;;;;;;;5.90;2.67;;;;;;;7.98;100.00;95123.50;5037270;28;20145;-76
2022/09/17 06:52:50;;;;;;;6.60;2.35;;;;;;;7.95;100.00;95134.53;5038347;28;20412;-76
2022/09/17 06:55:16;;;;;;;6.05;2.80;;;;;;;7.83;100.00;95128.72;5039963;28;20040;-79
2022/09/17 06:57:41;;;;;;;8.75;2.58;;;;;;;7.88;100.00;95131.38;5041441;28;20041;-76
2022/09/17 07:00:08;;;;;;;7.57;2.45;;;;;;;8.02;100.00;95127.19;5043796;28;20479;-74
2022/09/17 07:02:34;;;;;;;6.18;2.50;;;;;;;8.01;100.00;95128.22;5037777;28;20088;-76
2022/09/17 07:05:00;;;;;;;11.48;2.75;;;;;;;7.95;100.00;95110.94;5043428;28;20523;-74
2022/09/17 07:07:25;;;;;;;6.00;2.60;;;;;;;7.94;100.00;95111.97;5039533;28;20158;-75
2022/09/17 07:09:52;;;;;;;7.93;2.60;;;;;;;8.12;100.00;95100.97;5049479;28;20041;-73
2022/09/17 07:12:18;;;;;;;6.22;2.30;;;;;;;8.03;100.00;95113.03;5046426;28;20102;-75
2022/09/17 07:14:44;;;;;;;7.85;2.95;;;;;;;7.99;100.00;95114.59;5048072;28;20511;-75
2022/09/17 07:17:10;;;;;;;7.90;2.50;;;;;;;8.06;100.00;95109.88;5049107;28;20048;-74
2022/09/17 07:19:36;;;;;;;7.40;2.85;;;;;;;8.04;100.00;95117.22;5048253;28;20052;-75
2022/09/17 07:22:02;;;;;;;11.20;2.38;;;;;;;8.30;100.00;95110.13;5047458;28;20041;-74
2022/09/17 07:24:27;;;;;;;6.70;2.63;;;;;;;8.14;100.00;95117.19;5047890;28;20037;-74
2022/09/17 07:26:53;;;;;;;5.50;2.17;;;;;;;8.47;100.00;95120.34;5049125;28;20422;-75
2022/09/17 07:29:20;;;;;;;9.98;2.40;;;;;;;8.39;100.00;95113.00;5037714;28;20053;-75
2022/09/17 07:31:45;;;;;;;6.70;2.65;;;;;;;8.51;100.00;95114.59;5035965;28;20148;-76
2022/09/17 07:34:11;;;;;;;8.35;2.58;;;;;;;8.46;100.00;95113.56;5045986;28;20088;-74
2022/09/17 07:36:36;;;;;;;6.32;2.10;;;;;;;8.53;100.00;95107.22;5037548;28;20045;-79
2022/09/17 07:39:02;;;;;;;11.65;2.47;;;;;;;8.56;100.00;95111.94;5032336;28;20383;-73
2022/09/17 07:41:27;;;;;;;4.53;1.77;;;;;;;8.61;100.00;95104.06;5040737;28;20762;-74
2022/09/17 07:43:54;;;;;;;6.68;2.00;;;;;;;8.54;100.00;95106.19;5045998;28;20044;-73
2022/09/17 07:46:20;;;;;;;10.20;2.42;;;;;;;8.71;100.00;95104.03;5050808;28;20040;-74
2022/09/17 07:48:46;;;;;;;8.18;1.90;;;;;;;8.71;100.00;95098.81;5051989;28;20048;-74
2022/09/17 07:51:20;;;;;;;8.73;2.38;;;;;;;8.61;100.00;95104.06;5049951;28;20048;-74
2022/09/17 07:53:46;;;;;;;9.55;2.40;;;;;;;8.84;100.00;95108.72;5048969;28;20052;-74
2022/09/17 07:56:12;;;;;;;7.45;2.15;;;;;;;8.82;100.00;95095.09;5041165;28;20045;-75
2022/09/17 07:58:38;;;;;;;9.02;1.70;;;;;;;8.67;100.00;95109.03;5051611;28;20167;-74
2022/09/17 08:01:05;;;;;;;4.88;2.30;;;;;;;8.72;100.00;95104.81;5041125;28;20410;-73
2022/09/17 08:03:32;;;;;;;9.07;2.05;;;;;;;8.54;100.00;95108.81;5033942;28;20045;-73
2022/09/17 08:06:09;;;;;;;15.88;2.50;;;;;;;8.53;100.00;95122.97;5051708;28;20041;-74
2022/09/17 08:08:36;;;;;;;14.23;2.20;;;;;;;8.58;100.00;95120.34;5042025;28;20041;-74
2022/09/17 08:11:12;;;;;;;8.73;2.30;;;;;;;8.67;100.00;95124.00;5050204;28;20033;-73
2022/09/17 08:13:38;;;;;;;10.25;2.50;;;;;;;8.62;100.00;95126.63;5041329;28;20042;-74
2022/09/17 08:16:07;;;;;;;7.13;2.67;;;;;;;8.55;100.00;95111.16;5050470;28;20037;-74
2022/09/17 08:18:33;;;;;;;6.20;2.05;;;;;;;8.56;100.00;95112.75;5050082;28;20037;-74
2022/09/17 08:21:00;;;;;;;11.45;2.30;;;;;;;8.62;100.00;95121.38;5049161;28;20041;-74
2022/09/17 08:23:27;;;;;;;2.58;1.48;;;;;;;8.77;100.00;95118.72;5050136;28;20075;-74
2022/09/17 08:25:59;;;;;;;17.55;2.90;;;;;;;8.83;100.00;95128.16;5050249;28;20041;-74
2022/09/17 08:28:27;;;;;;;7.65;2.45;;;;;;;9.00;100.00;95121.78;5043932;28;20045;-74
2022/09/17 08:30:53;;;;;;;6.05;2.20;;;;;;;9.06;100.00;95136.47;5045178;28;20094;-73
2022/09/17 08:33:20;;;;;;;6.80;2.35;;;;;;;9.17;100.00;95137.22;5067015;28;20052;-74
2022/09/17 08:35:58;;;;;;;10.85;2.45;;;;;;;9.26;100.00;95134.81;5050433;28;20063;-73
2022/09/17 08:38:28;;;;;;;10.82;2.33;;;;;;;9.31;100.00;95137.41;5050169;28;20503;-74
2022/09/17 08:41:09;;;;;;;8.27;2.50;;;;;;;9.38;100.00;95142.38;5050429;28;20041;-73
2022/09/17 08:43:46;;;;;;;5.95;2.40;;;;;;;9.56;100.00;95162.00;5038212;28;20045;-74
2022/09/17 08:46:12;;;;;;;8.60;2.70;;;;;;;9.49;100.00;95152.53;5050927;28;20162;-73
2022/09/17 08:48:42;;;;;;;12.93;2.60;;;;;;;9.54;100.00;95157.78;5049553;28;20107;-73
2022/09/17 08:51:23;;;;;;;10.07;2.40;;;;;;;9.46;100.00;95145.22;5045887;28;20038;-74
2022/09/17 08:54:00;;;;;;;7.95;2.78;;;;;;;9.55;100.00;95153.31;5034733;28;20033;-74
2022/09/17 08:56:26;;;;;;;5.03;2.22;;;;;;;9.42;100.00;95154.69;5047758;28;20044;-74
2022/09/17 08:59:17;;;;;;;8.18;2.30;;;;;;;9.46;100.00;95158.34;5050478;28;20067;-74
2022/09/17 09:02:15;;;;;;;5.43;2.35;;;;;;;9.29;100.00;95165.78;5038826;28;20046;-74
2022/09/17 09:05:01;;;;;;;7.13;2.13;;;;;;;9.18;100.00;95168.44;5039488;28;20139;-74
2022/09/17 09:07:33;;;;;;;4.63;2.20;;;;;;;9.19;100.00;95162.16;5050620;28;20047;-74
2022/09/17 09:10:11;;;;;;;9.57;2.28;;;;;;;9.27;100.00;95168.69;5048124;28;20051;-74
2022/09/17 09:12:38;;;;;;;7.60;2.38;;;;;;;9.26;100.00;95166.31;5049060;28;20052;-74
2022/09/17 09:15:29;;;;;;;12.70;3.70;;;;;;;9.15;100.00;95171.63;5040943;28;20044;-74
2022/09/17 09:18:00;;;;;;;4.95;2.38;;;;;;;9.26;100.00;95171.56;5050452;28;20041;-73
2022/09/17 09:20:31;;;;;;;11.43;2.92;;;;;;;9.41;100.00;95178.59;5049732;28;20041;-74
2022/09/17 09:23:07;;;;;;;9.90;2.75;;;;;;;9.25;100.00;95175.25;5049861;28;20088;-74
2022/09/17 09:25:43;;;;;;;11.43;2.70;;;;;;;9.42;100.00;95170.44;5049456;28;20045;-73
2022/09/17 09:28:31;;;;;;;7.63;2.35;;;;;;;9.47;100.00;95167.81;5050317;28;20119;-74
2022/09/17 09:31:04;;;;;;;13.38;2.42;;;;;;;9.39;100.00;95170.22;5044750;28;20042;-74
2022/09/17 09:33:34;;;;;;;7.22;2.72;;;;;;;9.41;100.00;95174.16;5050046;28;20052;-74
2022/09/17 09:36:01;;;;;;;10.82;3.05;;;;;;;9.48;100.00;95169.38;5048746;28;20529;-74
2022/09/17 09:38:52;;;;;;;11.32;2.88;;;;;;;9.50;100.00;95169.13;5049853;28;20041;-74
2022/09/17 09:41:42;;;;;;;11.00;2.83;;;;;;;9.38;100.00;95179.94;5047392;28;20041;-74
2022/09/17 09:44:10;;;;;;;9.40;2.40;;;;;;;9.27;100.00;95167.91;5047424;28;20044;-74
2022/09/17 09:47:04;;;;;;;13.93;3.47;;;;;;;9.18;100.00;95176.34;5048936;28;20056;-74
2022/09/17 09:50:02;;;;;;;8.82;2.97;;;;;;;9.18;100.00;95184.22;5049283;28;20415;-74
2022/09/17 09:52:43;;;;;;;6.00;2.47;;;;;;;9.48;100.00;95179.09;5032596;28;20072;-74
2022/09/17 09:55:30;;;;;;;11.55;2.80;;;;;;;9.79;100.00;95178.94;5034295;28;20042;-74
2022/09/17 09:58:04;;;;;;;9.82;3.00;;;;;;;9.98;100.00;95176.44;5048295;28;20144;-74
2022/09/17 10:00:36;;;;;;;10.15;3.00;;;;;;;9.80;100.00;95176.03;5046114;28;20124;-74
2022/09/17 10:03:13;;;;;;;12.93;3.47;;;;;;;9.58;100.00;95183.50;5039076;28;20048;-74
2022/09/17 10:05:50;;;;;;;17.45;3.08;;;;;;;9.56;100.00;95181.16;5049715;28;20075;-74
2022/09/17 10:08:16;;;;;;;15.48;3.88;;;;;;;9.40;100.00;95166.53;5049219;28;20040;-75
2022/09/17 10:11:05;;;;;;;8.30;2.83;;;;;;;9.28;100.00;95172.09;5043863;28;20046;-74
2022/09/17 10:13:34;;;;;;;11.30;3.00;;;;;;;9.28;100.00;95177.34;5048146;28;20095;-75
2022/09/17 10:16:19;;;;;;;10.95;2.92;;;;;;;9.27;100.00;95183.66;5049631;28;20037;-74
2022/09/17 10:18:47;;;;;;;8.32;3.25;;;;;;;9.14;100.00;95196.28;5049851;28;20041;-74
2022/09/17 10:21:22;;;;;;;7.88;2.60;;;;;;;9.01;100.00;95196.88;5047366;28;20037;-74
2022/09/17 10:23:49;;;;;;;8.27;2.80;;;;;;;8.94;100.00;95196.34;5048034;28;20048;-74
2022/09/17 10:26:32;;;;;;;10.93;2.90;;;;;;;8.88;100.00;95197.41;5048810;28;20495;-74
2022/09/17 10:29:01;;;;;;;7.95;2.92;;;;;;;8.74;100.00;95207.69;5048850;28;20826;-74
2022/09/17 10:31:26;;;;;;;11.43;3.08;;;;;;;8.63;100.00;95212.13;5049150;28;20206;-74
2022/09/17 10:33:56;;;;;;;8.15;2.90;;;;;;;8.47;100.00;95206.88;5041836;28;20045;-74
2022/09/17 10:36:43;;;;;;;7.57;2.30;;;;;;;8.36;100.00;95202.69;5047918;28;20045;-74
2022/09/17 10:39:32;;;;;;;13.15;3.15;;;;;;;8.21;100.00;95202.69;5050872;28;20465;-74
2022/09/17 10:42:03;;;;;;;8.52;3.08;;;;;;;8.21;100.00;95210.53;5055045;28;20053;-74
2022/09/17 10:44:33;;;;;;;13.48;3.47;;;;;;;8.25;100.00;95195.88;5051678;28;20037;-74
2022/09/17 10:47:11;;;;;;;7.35;3.28;;;;;;;8.30;100.00;95193.22;5051332;28;20040;-75
2022/09/17 10:49:47;;;;;;;12.48;3.63;;;;;;;8.40;100.00;95198.47;5048285;28;20048;-75
2022/09/17 10:52:15;;;;;;;11.05;3.50;;;;;;;8.37;100.00;95195.59;5039756;28;20041;-74
2022/09/17 10:55:07;;;;;;;8.85;3.03;;;;;;;8.23;100.00;95200.56;5046711;28;20098;-74
2022/09/17 10:57:54;;;;;;;7.30;2.80;;;;;;;8.27;100.00;95199.00;5035360;28;20499;-75
2022/09/17 11:00:22;;;;;;;10.85;2.95;;;;;;;8.40;100.00;95192.44;5047084;28;20179;-75
2022/09/17 11:03:16;;;;;;;16.98;3.80;;;;;;;8.37;100.00;95196.38;5049368;28;20116;-75
2022/09/17 11:06:04;;;;;;;10.25;3.17;;;;;;;8.21;100.00;95190.34;5048989;28;20116;-75
2022/09/17 11:08:35;;;;;;;13.98;3.50;;;;;;;8.46;100.00;95202.72;5061416;28;20572;-75
2022/09/17 11:11:10;;;;;;;12.10;3.63;;;;;;;8.78;100.00;95187.72;5048262;28;20098;-74
2022/09/17 11:13:51;;;;;;;8.73;3.17;;;;;;;8.70;100.00;95194.28;5046964;28;20044;-75
2022/09/17 11:16:45;;;;;;;9.57;3.17;;;;;;;8.78;100.00;95183.25;5035420;28;20147;-74
2022/09/17 11:19:35;;;;;;;17.35;3.45;;;;;;;8.77;100.00;95181.69;5048520;28;20045;-74
2022/09/17 11:22:29;;;;;;;8.98;2.75;;;;;;;8.78;100.00;95183.25;5049378;28;20071;-75
2022/09/17 11:25:22;;;;;;;7.88;2.55;;;;;;;8.60;100.00;95181.19;5040621;28;20037;-75
2022/09/17 11:28:26;;;;;;;6.70;2.65;;;;;;;8.29;100.00;95181.19;5040664;28;20059;-75
2022/09/17 11:31:03;;;;;;;5.93;2.13;;;;;;;8.37;100.00;95167.53;5051130;28;20067;-74
2022/09/17 11:33:28;;;;;;;7.45;1.90;;;;;;;8.55;100.00;95189.03;5050739;28;20060;-75
2022/09/17 11:36:09;;;;;;;3.13;2.03;;;;;;;8.81;100.00;95177.47;5052887;28;20530;-75
2022/09/17 11:38:48;;;;;;;4.53;1.95;;;;;;;9.13;100.00;95176.34;5040926;28;20112;-75
2022/09/17 11:41:36;;;;;;;6.38;2.30;;;;;;;9.04;100.00;95185.81;5050140;28;20041;-74
2022/09/17 11:44:07;;;;;;;6.45;2.38;;;;;;;9.01;100.00;95187.13;5044277;28;20048;-75
2022/09/17 11:46:46;;;;;;;4.78;1.90;;;;;;;8.83;100.00;95175.38;5052710;28;20048;-75
2022/09/17 11:49:31;;;;;;;6.25;1.90;;;;;;;8.74;100.00;95186.69;5050868;28;20079;-75
2022/09/17 11:52:05;;;;;;;7.72;2.42;;;;;;;9.22;100.00;95183.66;5051943;28;20037;-75
2022/09/17 11:54:40;;;;;;;5.25;2.03;;;;;;;9.83;100.00;95170.22;5035802;28;20046;-75